Time;durP1;ratioP1;P1;durP2;ratioP2;P2;SDS_P1;SDS_P2;PMS_P1;PMS_P2;Temp;Humidity;BMP_temperature;BMP_pressure;BME280_temperature;BME280_humidity;BME280_pressure;Samples;Min_cycle;Max_cycle;Signal;HPM_P1;HPM_P2
2024/01/25 00:02:25;;;;;;;7.32;1.90;;;;;;;;;;5035186;28;20147;-73
2024/01/25 00:04:50;;;;;;;10.50;1.83;;;;;;;;;;5038388;28;20083;-72
2024/01/25 00:07:16;;;;;;;12.18;2.42;;;;;;;;;;5041296;28;20112;-72
2024/01/25 00:09:42;;;;;;;10.60;1.75;;;;;;;;;;5058306;28;20437;-72
2024/01/25 00:12:07;;;;;;;12.05;3.20;;;;;;;;;;5061082;28;20047;-71
2024/01/25 00:14:33;;;;;;;11.80;2.13;;;;;;;;;;5055622;28;20136;-73
2024/01/25 00:16:59;;;;;;;15.55;2.47;;;;;;;;;;5056178;28;20020;-70
2024/01/25 00:19:24;;;;;;;8.80;2.22;;;;;;;;;;5055473;28;20028;-73
2024/01/25 00:21:50;;;;;;;7.68;1.77;;;;;;;;;;5055176;28;20086;-73
2024/01/25 00:24:17;;;;;;;8.52;2.05;;;;;;;;;;5055833;28;20032;-71
2024/01/25 00:26:42;;;;;;;8.13;2.13;;;;;;;;;;5055938;28;20029;-72
2024/01/25 00:29:08;;;;;;;8.95;1.60;;;;;;;;;;5054285;28;20039;-73
2024/01/25 00:31:34;;;;;;;10.40;1.90;;;;;;;;;;5054095;28;20084;-73
2024/01/25 00:34:00;;;;;;;8.07;2.00;;;;;;;;;;5036704;28;20064;-73
2024/01/25 00:36:26;;;;;;;9.70;1.65;;;;;;;;;;5033711;28;20531;-72
2024/01/25 00:38:53;;;;;;;7.72;1.65;;;;;;;;;;5034186;28;20029;-71
2024/01/25 00:41:19;;;;;;;10.30;2.10;;;;;;;;;;5035610;28;20060;-73
2024/01/25 00:43:46;;;;;;;4.50;1.70;;;;;;;;;;5035739;28;20029;-72
2024/01/25 00:46:12;;;;;;;8.70;1.85;;;;;;;;;;5036017;28;20087;-72
2024/01/25 00:48:40;;;;;;;12.70;2.28;;;;;;;;;;5036275;28;20041;-71
2024/01/25 00:51:07;;;;;;;5.45;1.50;;;;;;;;;;5033565;28;20505;-72
2024/01/25 00:53:34;;;;;;;6.03;1.85;;;;;;;;;;5033922;28;20035;-72
2024/01/25 00:56:00;;;;;;;11.18;1.88;;;;;;;;;;5035418;28;20021;-74
2024/01/25 00:58:26;;;;;;;6.05;1.33;;;;;;;;;;5034980;28;20064;-73
2024/01/25 01:00:52;;;;;;;5.20;1.52;;;;;;;;;;5033200;28;20030;-72
2024/01/25 01:03:21;;;;;;;9.80;2.67;;;;;;;;;;5033299;28;20378;-72
2024/01/25 01:05:47;;;;;;;11.50;2.03;;;;;;;;;;5034997;28;20232;-73
2024/01/25 01:08:13;;;;;;;11.88;1.90;;;;;;;;;;5034770;28;20060;-72
2024/01/25 01:10:40;;;;;;;8.48;2.00;;;;;;;;;;5033680;28;20107;-72
2024/01/25 01:13:05;;;;;;;13.20;2.67;;;;;;;;;;5034151;28;20068;-72
2024/01/25 01:15:31;;;;;;;17.45;2.63;;;;;;;;;;5034747;28;20232;-72
2024/01/25 01:17:57;;;;;;;12.30;2.72;;;;;;;;;;5036817;28;20044;-72
2024/01/25 01:20:22;;;;;;;14.68;2.60;;;;;;;;;;5045392;28;20064;-72
2024/01/25 01:22:48;;;;;;;7.22;1.77;;;;;;;;;;5055682;28;20081;-73
2024/01/25 01:25:13;;;;;;;6.72;2.05;;;;;;;;;;5054229;28;20063;-72
2024/01/25 01:27:39;;;;;;;8.13;2.58;;;;;;;;;;5053554;28;20041;-74
2024/01/25 01:30:08;;;;;;;9.63;1.63;;;;;;;;;;5053662;28;20028;-73
2024/01/25 01:32:33;;;;;;;13.07;2.55;;;;;;;;;;5053469;28;20029;-71
2024/01/25 01:34:59;;;;;;;6.85;2.40;;;;;;;;;;5053344;28;20041;-72
2024/01/25 01:37:25;;;;;;;6.45;1.60;;;;;;;;;;5053552;28;20031;-75
2024/01/25 01:39:52;;;;;;;11.80;2.45;;;;;;;;;;5056377;28;20022;-73
2024/01/25 01:42:17;;;;;;;14.13;2.00;;;;;;;;;;5041482;28;20053;-71
2024/01/25 01:44:43;;;;;;;14.73;2.53;;;;;;;;;;5037713;28;20033;-72
2024/01/25 01:47:09;;;;;;;9.85;1.98;;;;;;;;;;5037882;28;20113;-71
2024/01/25 01:49:35;;;;;;;11.45;2.20;;;;;;;;;;5034321;28;20040;-72
2024/01/25 01:52:02;;;;;;;11.63;2.42;;;;;;;;;;5017686;28;20034;-74
2024/01/25 01:54:28;;;;;;;14.98;2.63;;;;;;;;;;5034983;28;20040;-73
2024/01/25 01:56:54;;;;;;;11.80;1.90;;;;;;;;;;5043548;28;20037;-70
2024/01/25 01:59:20;;;;;;;10.85;1.65;;;;;;;;;;5035425;28;20345;-72
2024/01/25 02:01:46;;;;;;;9.07;1.88;;;;;;;;;;5034093;28;20112;-72
2024/01/25 02:04:12;;;;;;;9.75;2.97;;;;;;;;;;5033793;28;20377;-73
2024/01/25 02:06:37;;;;;;;13.45;1.65;;;;;;;;;;5032504;28;20064;-72
2024/01/25 02:09:04;;;;;;;10.82;1.83;;;;;;;;;;5035682;28;20112;-73
2024/01/25 02:11:30;;;;;;;10.15;1.67;;;;;;;;;;5034685;28;20049;-70
2024/01/25 02:13:56;;;;;;;9.20;1.95;;;;;;;;;;5036005;28;20033;-72
2024/01/25 02:16:21;;;;;;;10.05;2.72;;;;;;;;;;5035482;28;20071;-70
2024/01/25 02:18:47;;;;;;;11.35;2.97;;;;;;;;;;5035470;28;20025;-72
2024/01/25 02:21:13;;;;;;;10.10;2.17;;;;;;;;;;5036400;28;20021;-73
2024/01/25 02:23:39;;;;;;;16.38;2.35;;;;;;;;;;5033517;28;20025;-74
2024/01/25 02:26:05;;;;;;;10.45;2.10;;;;;;;;;;5031748;28;20175;-72
2024/01/25 02:28:31;;;;;;;18.30;2.47;;;;;;;;;;5034097;28;20029;-72
2024/01/25 02:30:57;;;;;;;13.00;3.58;;;;;;;;;;5035155;28;20418;-75
2024/01/25 02:33:22;;;;;;;13.63;3.67;;;;;;;;;;5034677;28;20033;-73
2024/01/25 02:35:48;;;;;;;9.30;2.22;;;;;;;;;;5034332;28;20056;-73
2024/01/25 02:38:14;;;;;;;9.55;2.00;;;;;;;;;;5034727;28;20021;-72
2024/01/25 02:40:40;;;;;;;14.25;2.08;;;;;;;;;;5036057;28;20060;-71
2024/01/25 02:43:05;;;;;;;6.07;1.95;;;;;;;;;;5035515;28;20041;-73
2024/01/25 02:45:31;;;;;;;12.20;2.13;;;;;;;;;;5042191;28;20370;-72
2024/01/25 02:47:57;;;;;;;9.90;2.10;;;;;;;;;;5054001;28;20044;-73
2024/01/25 02:50:23;;;;;;;12.02;2.13;;;;;;;;;;5054411;28;20067;-72
2024/01/25 02:52:48;;;;;;;14.70;1.85;;;;;;;;;;5054998;28;20035;-73
2024/01/25 02:55:14;;;;;;;5.90;1.80;;;;;;;;;;5057568;28;20412;-71
2024/01/25 02:57:40;;;;;;;6.43;1.05;;;;;;;;;;5056855;28;20407;-72
2024/01/25 03:00:06;;;;;;;8.95;2.05;;;;;;;;;;5056574;28;20033;-72
2024/01/25 03:02:32;;;;;;;10.85;1.70;;;;;;;;;;5057680;28;20044;-73
2024/01/25 03:04:57;;;;;;;6.35;2.30;;;;;;;;;;5056353;28;20393;-73
2024/01/25 03:07:23;;;;;;;10.13;2.50;;;;;;;;;;5055984;28;20067;-72
2024/01/25 03:09:48;;;;;;;10.90;1.67;;;;;;;;;;5045273;28;20401;-73
2024/01/25 03:12:14;;;;;;;10.85;1.35;;;;;;;;;;5036677;28;20029;-71
2024/01/25 03:14:39;;;;;;;8.57;1.83;;;;;;;;;;5035568;28;20108;-72
2024/01/25 03:17:05;;;;;;;12.73;2.15;;;;;;;;;;5036026;28;20060;-72
2024/01/25 03:19:31;;;;;;;8.00;1.55;;;;;;;;;;5036550;28;20025;-72
2024/01/25 03:21:56;;;;;;;9.30;2.00;;;;;;;;;;5040192;28;20466;-71
2024/01/25 03:24:22;;;;;;;17.13;2.25;;;;;;;;;;5037211;28;20108;-71
2024/01/25 03:26:48;;;;;;;11.75;2.25;;;;;;;;;;5037757;28;20124;-71
2024/01/25 03:29:15;;;;;;;11.65;2.05;;;;;;;;;;5035944;28;20056;-69
2024/01/25 03:31:41;;;;;;;12.57;2.10;;;;;;;;;;5035490;28;20034;-72
2024/01/25 03:34:07;;;;;;;18.38;2.08;;;;;;;;;;5052520;28;20039;-72
2024/01/25 03:36:32;;;;;;;9.45;1.73;;;;;;;;;;5034614;28;20083;-71
2024/01/25 03:38:58;;;;;;;15.80;2.38;;;;;;;;;;5034773;28;20017;-74
2024/01/25 03:41:24;;;;;;;12.55;2.00;;;;;;;;;;5035906;28;20033;-72
2024/01/25 03:43:50;;;;;;;9.18;2.25;;;;;;;;;;5035825;28;20040;-73
2024/01/25 03:46:15;;;;;;;10.57;2.13;;;;;;;;;;5033838;28;20037;-70
2024/01/25 03:48:42;;;;;;;5.45;2.45;;;;;;;;;;5035018;28;20504;-72
2024/01/25 03:51:08;;;;;;;10.75;2.05;;;;;;;;;;5033820;28;20033;-72
2024/01/25 03:53:33;;;;;;;7.88;1.92;;;;;;;;;;5034709;28;20468;-72
2024/01/25 03:55:59;;;;;;;9.13;2.40;;;;;;;;;;5034713;28;20037;-72
2024/01/25 03:58:25;;;;;;;11.77;2.45;;;;;;;;;;5050902;28;20037;-72
2024/01/25 04:00:50;;;;;;;9.45;2.85;;;;;;;;;;5054803;28;20032;-72
2024/01/25 04:03:16;;;;;;;13.43;2.67;;;;;;;;;;5054348;28;20036;-72
2024/01/25 04:05:41;;;;;;;13.80;2.78;;;;;;;;;;5053204;28;20151;-74
2024/01/25 04:08:07;;;;;;;11.65;2.63;;;;;;;;;;5054523;28;20025;-72
2024/01/25 04:10:33;;;;;;;17.17;2.47;;;;;;;;;;5039260;28;20068;-71
2024/01/25 04:13:04;;;;;;;11.15;2.25;;;;;;;;;;5039963;28;20031;-73
2024/01/25 04:15:30;;;;;;;9.50;1.90;;;;;;;;;;5044522;28;20033;-72
2024/01/25 04:17:56;;;;;;;9.48;2.72;;;;;;;;;;5038955;28;20033;-73
2024/01/25 04:20:22;;;;;;;12.52;2.17;;;;;;;;;;5035008;28;20083;-74
2024/01/25 04:22:47;;;;;;;8.00;2.17;;;;;;;;;;5052246;28;20067;-72
2024/01/25 04:25:13;;;;;;;12.63;1.60;;;;;;;;;;5055706;28;20033;-72
2024/01/25 04:27:39;;;;;;;8.68;1.73;;;;;;;;;;5055520;28;20028;-70
2024/01/25 04:30:06;;;;;;;12.68;2.10;;;;;;;;;;5054160;28;20024;-73
2024/01/25 04:32:32;;;;;;;17.90;2.60;;;;;;;;;;5055643;28;20057;-74
2024/01/25 04:34:57;;;;;;;6.97;1.45;;;;;;;;;;5036895;28;20048;-73
2024/01/25 04:37:23;;;;;;;9.85;2.60;;;;;;;;;;5034477;28;20120;-71
2024/01/25 04:39:48;;;;;;;12.02;2.35;;;;;;;;;;5035859;28;20025;-72
2024/01/25 04:42:14;;;;;;;11.68;2.53;;;;;;;;;;5034280;28;20086;-72
2024/01/25 04:44:40;;;;;;;10.80;2.10;;;;;;;;;;5034271;28;20025;-72
2024/01/25 04:47:06;;;;;;;7.60;1.70;;;;;;;;;;5035815;28;20092;-71
2024/01/25 04:49:32;;;;;;;7.07;2.08;;;;;;;;;;5034460;28;20397;-73
2024/01/25 04:51:58;;;;;;;11.27;2.35;;;;;;;;;;5035068;28;20045;-72
2024/01/25 04:54:23;;;;;;;8.20;2.15;;;;;;;;;;5037434;28;20089;-70
2024/01/25 04:56:49;;;;;;;12.60;2.30;;;;;;;;;;5036890;28;20033;-72
2024/01/25 04:59:14;;;;;;;10.88;2.05;;;;;;;;;;5036870;28;20041;-72
2024/01/25 05:01:40;;;;;;;11.85;2.75;;;;;;;;;;5051401;28;20033;-76
2024/01/25 05:04:06;;;;;;;9.32;2.15;;;;;;;;;;5054749;28;20424;-73
2024/01/25 05:06:31;;;;;;;10.40;2.88;;;;;;;;;;5054582;28;20033;-74
2024/01/25 05:08:57;;;;;;;14.10;2.80;;;;;;;;;;5055932;28;20040;-74
2024/01/25 05:11:22;;;;;;;9.35;2.28;;;;;;;;;;5055603;28;20053;-73
2024/01/25 05:13:48;;;;;;;11.43;2.30;;;;;;;;;;5056109;28;20384;-73
2024/01/25 05:16:14;;;;;;;7.93;2.22;;;;;;;;;;5054449;28;20039;-72
2024/01/25 05:18:39;;;;;;;9.20;2.25;;;;;;;;;;5054663;28;20033;-72
2024/01/25 05:21:06;;;;;;;13.23;2.15;;;;;;;;;;5052491;28;20047;-73
2024/01/25 05:23:31;;;;;;;11.82;1.83;;;;;;;;;;5034498;28;20029;-71
2024/01/25 05:25:57;;;;;;;9.30;2.20;;;;;;;;;;5033787;28;20040;-71
2024/01/25 05:28:24;;;;;;;8.77;2.05;;;;;;;;;;5035266;28;20044;-72
2024/01/25 05:30:50;;;;;;;12.40;2.40;;;;;;;;;;5036038;28;20025;-74
2024/01/25 05:33:16;;;;;;;10.65;1.48;;;;;;;;;;5038363;28;20339;-72
2024/01/25 05:35:41;;;;;;;12.73;2.15;;;;;;;;;;5055008;28;20037;-73
2024/01/25 05:38:07;;;;;;;16.50;2.22;;;;;;;;;;5053727;28;20039;-73
2024/01/25 05:40:32;;;;;;;11.85;1.98;;;;;;;;;;5053349;28;20029;-73
2024/01/25 05:42:59;;;;;;;11.40;2.05;;;;;;;;;;5034096;28;20055;-72
2024/01/25 05:45:25;;;;;;;11.80;2.08;;;;;;;;;;5039004;28;20035;-71
2024/01/25 05:47:50;;;;;;;8.75;1.83;;;;;;;;;;5053985;28;20029;-71
2024/01/25 05:50:17;;;;;;;14.20;2.40;;;;;;;;;;5053187;28;20035;-71
2024/01/25 05:52:43;;;;;;;9.35;1.65;;;;;;;;;;5053236;28;20032;-74
2024/01/25 05:55:10;;;;;;;11.98;1.98;;;;;;;;;;5055352;28;20491;-73
2024/01/25 05:57:36;;;;;;;15.18;2.55;;;;;;;;;;5034549;28;20126;-71
2024/01/25 06:00:05;;;;;;;16.00;2.42;;;;;;;;;;5034387;28;20021;-72
2024/01/25 06:02:31;;;;;;;13.88;3.28;;;;;;;;;;5034504;28;20056;-72
2024/01/25 06:04:58;;;;;;;9.30;2.53;;;;;;;;;;5032417;28;20033;-73
2024/01/25 06:07:24;;;;;;;13.35;2.35;;;;;;;;;;5031903;28;20034;-73
2024/01/25 06:09:50;;;;;;;13.88;2.20;;;;;;;;;;5033956;28;20132;-72
2024/01/25 06:12:15;;;;;;;9.95;2.40;;;;;;;;;;5036433;28;20063;-75
2024/01/25 06:14:41;;;;;;;9.07;1.95;;;;;;;;;;5035808;28;20021;-73
2024/01/25 06:17:07;;;;;;;10.48;2.30;;;;;;;;;;5035435;28;20033;-72
2024/01/25 06:19:34;;;;;;;12.70;2.50;;;;;;;;;;5036507;28;20402;-72
2024/01/25 06:22:00;;;;;;;11.07;2.30;;;;;;;;;;5034641;28;20037;-72
2024/01/25 06:24:25;;;;;;;9.50;2.13;;;;;;;;;;5053179;28;20032;-72
2024/01/25 06:26:52;;;;;;;9.48;2.95;;;;;;;;;;5052040;28;20033;-70
2024/01/25 06:29:18;;;;;;;13.82;3.28;;;;;;;;;;5056278;28;20116;-70
2024/01/25 06:31:44;;;;;;;12.93;2.00;;;;;;;;;;5055374;28;20086;-70
2024/01/25 06:34:10;;;;;;;12.00;2.30;;;;;;;;;;5037756;28;20102;-72
2024/01/25 06:36:36;;;;;;;11.40;2.63;;;;;;;;;;5055656;28;20040;-72
2024/01/25 06:39:04;;;;;;;12.07;1.98;;;;;;;;;;5054477;28;20388;-74
2024/01/25 06:41:30;;;;;;;12.60;2.28;;;;;;;;;;5044830;28;20054;-72
2024/01/25 06:43:55;;;;;;;12.38;2.50;;;;;;;;;;5032182;28;20025;-71
2024/01/25 06:46:21;;;;;;;12.20;2.53;;;;;;;;;;5039239;28;20033;-73
2024/01/25 06:48:47;;;;;;;13.38;2.03;;;;;;;;;;5034647;28;20041;-70
2024/01/25 06:51:14;;;;;;;7.85;2.03;;;;;;;;;;5030607;28;20051;-74
2024/01/25 06:53:40;;;;;;;13.57;2.03;;;;;;;;;;5031428;28;20458;-72
2024/01/25 06:56:06;;;;;;;11.15;2.15;;;;;;;;;;5032909;28;20064;-74
2024/01/25 06:58:32;;;;;;;5.40;1.70;;;;;;;;;;5032961;28;20053;-71
2024/01/25 07:00:58;;;;;;;7.45;1.90;;;;;;;;;;5033154;28;20083;-73
2024/01/25 07:03:24;;;;;;;10.60;2.67;;;;;;;;;;5030936;28;20029;-74
2024/01/25 07:05:51;;;;;;;8.55;1.50;;;;;;;;;;5030325;28;20057;-72
2024/01/25 07:08:17;;;;;;;13.90;2.17;;;;;;;;;;5030042;28;20207;-72
2024/01/25 07:10:44;;;;;;;6.93;2.05;;;;;;;;;;5034937;28;20337;-73
2024/01/25 07:13:09;;;;;;;15.38;2.35;;;;;;;;;;5017094;28;20030;-74
2024/01/25 07:15:35;;;;;;;15.93;2.20;;;;;;;;;;5033070;28;20045;-71
2024/01/25 07:18:00;;;;;;;24.20;2.97;;;;;;;;;;5030743;28;20036;-68
2024/01/25 07:20:26;;;;;;;11.80;2.00;;;;;;;;;;5026422;28;20053;-70
2024/01/25 07:22:53;;;;;;;10.02;2.28;;;;;;;;;;5033384;28;20029;-72
2024/01/25 07:25:18;;;;;;;7.45;1.95;;;;;;;;;;5023573;28;20036;-74
2024/01/25 07:27:45;;;;;;;11.68;2.13;;;;;;;;;;5031771;28;20397;-71
2024/01/25 07:30:15;;;;;;;9.57;2.13;;;;;;;;;;5028728;28;20083;-76
2024/01/25 07:32:42;;;;;;;19.63;2.78;;;;;;;;;;5031169;28;20033;-74
2024/01/25 07:35:11;;;;;;;8.93;1.92;;;;;;;;;;5034136;28;20034;-72
2024/01/25 07:37:39;;;;;;;7.90;2.00;;;;;;;;;;5031114;28;20033;-71
2024/01/25 07:40:06;;;;;;;5.60;1.50;;;;;;;;;;5035834;28;20029;-74
2024/01/25 07:42:33;;;;;;;8.45;2.28;;;;;;;;;;5036081;28;20039;-75
2024/01/25 07:44:59;;;;;;;13.25;1.48;;;;;;;;;;5037947;28;20299;-70
2024/01/25 07:47:24;;;;;;;9.30;1.90;;;;;;;;;;5020732;28;20434;-74
2024/01/25 07:49:52;;;;;;;12.70;2.15;;;;;;;;;;5025112;28;20028;-71
2024/01/25 07:52:19;;;;;;;17.20;2.30;;;;;;;;;;5040950;28;20110;-73
2024/01/25 07:54:45;;;;;;;9.38;1.85;;;;;;;;;;5032350;28;20042;-72
2024/01/25 07:57:11;;;;;;;14.60;2.88;;;;;;;;;;5046270;28;20129;-72
2024/01/25 07:59:37;;;;;;;9.95;2.30;;;;;;;;;;5029329;28;20037;-73
2024/01/25 08:02:06;;;;;;;8.65;1.77;;;;;;;;;;5036005;28;20037;-73
2024/01/25 08:04:31;;;;;;;7.75;1.45;;;;;;;;;;5033053;28;20107;-73
2024/01/25 08:06:58;;;;;;;10.60;2.08;;;;;;;;;;5027207;28;20080;-74
2024/01/25 08:09:23;;;;;;;5.90;1.42;;;;;;;;;;5016083;28;20168;-73
2024/01/25 08:11:49;;;;;;;17.05;2.60;;;;;;;;;;5038589;28;20085;-72
2024/01/25 08:14:15;;;;;;;8.55;1.90;;;;;;;;;;5034857;28;20038;-72
2024/01/25 08:16:43;;;;;;;5.38;1.80;;;;;;;;;;5028182;28;20021;-73
2024/01/25 08:19:08;;;;;;;10.48;2.15;;;;;;;;;;5034976;28;20022;-72
2024/01/25 08:21:35;;;;;;;6.88;1.70;;;;;;;;;;5037420;28;20040;-72
2024/01/25 08:24:02;;;;;;;3.47;1.27;;;;;;;;;;5031218;28;20036;-73
2024/01/25 08:26:27;;;;;;;6.70;1.92;;;;;;;;;;5033583;28;20033;-73
2024/01/25 08:28:53;;;;;;;13.38;1.90;;;;;;;;;;5024044;28;20312;-71
2024/01/25 08:31:22;;;;;;;7.43;2.05;;;;;;;;;;5007526;28;20468;-73
2024/01/25 08:33:47;;;;;;;9.95;1.92;;;;;;;;;;5019647;28;20040;-71
2024/01/25 08:36:17;;;;;;;7.97;1.42;;;;;;;;;;5025897;28;20172;-72
2024/01/25 08:38:43;;;;;;;11.80;2.20;;;;;;;;;;5025534;28;20159;-73
2024/01/25 08:41:10;;;;;;;11.70;1.77;;;;;;;;;;5020326;28;20065;-72
2024/01/25 08:43:37;;;;;;;12.60;2.00;;;;;;;;;;5022383;28;20033;-73
2024/01/25 08:46:04;;;;;;;13.32;1.83;;;;;;;;;;5022266;28;20037;-70
2024/01/25 08:48:30;;;;;;;14.48;2.08;;;;;;;;;;5025220;28;20148;-73
2024/01/25 08:50:55;;;;;;;15.68;2.00;;;;;;;;;;5021020;28;20124;-76
2024/01/25 08:53:22;;;;;;;5.57;1.50;;;;;;;;;;5024369;28;20055;-75
2024/01/25 08:55:48;;;;;;;5.43;1.80;;;;;;;;;;5024810;28;20041;-73
2024/01/25 08:58:14;;;;;;;6.38;1.70;;;;;;;;;;5030658;28;20738;-73
2024/01/25 09:00:40;;;;;;;8.45;1.50;;;;;;;;;;5026347;28;20789;-72
2024/01/25 09:03:06;;;;;;;8.50;1.80;;;;;;;;;;5026407;28;20032;-73
2024/01/25 09:05:34;;;;;;;9.25;1.40;;;;;;;;;;5029489;28;20040;-74
2024/01/25 09:08:00;;;;;;;8.57;1.55;;;;;;;;;;5024469;28;20068;-73
2024/01/25 09:10:25;;;;;;;10.77;1.85;;;;;;;;;;5016904;28;20363;-70
2024/01/25 09:12:54;;;;;;;6.65;1.35;;;;;;;;;;5028091;28;20072;-70
2024/01/25 09:15:20;;;;;;;7.25;1.40;;;;;;;;;;5021797;28;20121;-73
2024/01/25 09:17:46;;;;;;;14.30;2.80;;;;;;;;;;5029833;28;20420;-73
2024/01/25 09:20:11;;;;;;;7.07;1.65;;;;;;;;;;5030960;28;20571;-71
2024/01/25 09:22:37;;;;;;;11.75;2.08;;;;;;;;;;5028834;28;20538;-72
2024/01/25 09:25:04;;;;;;;13.05;1.90;;;;;;;;;;5026918;28;20174;-73
2024/01/25 09:27:30;;;;;;;9.10;1.55;;;;;;;;;;5032078;28;20029;-73
2024/01/25 09:29:56;;;;;;;10.18;1.92;;;;;;;;;;5027610;28;20480;-75
2024/01/25 09:32:21;;;;;;;4.68;1.00;;;;;;;;;;5028521;28;20037;-75
2024/01/25 09:34:47;;;;;;;5.07;1.35;;;;;;;;;;5026361;28;20040;-75
2024/01/25 09:37:14;;;;;;;8.90;2.17;;;;;;;;;;5024332;28;20092;-73
2024/01/25 09:39:40;;;;;;;6.65;1.15;;;;;;;;;;5025428;28;20040;-75
2024/01/25 09:42:07;;;;;;;7.72;1.40;;;;;;;;;;5024332;28;20046;-75
2024/01/25 09:44:33;;;;;;;5.78;1.10;;;;;;;;;;5029351;28;20063;-76
2024/01/25 09:47:00;;;;;;;5.03;1.50;;;;;;;;;;5028050;28;20037;-76
2024/01/25 09:49:26;;;;;;;3.13;1.20;;;;;;;;;;5026192;28;20378;-73
2024/01/25 09:51:54;;;;;;;6.93;1.50;;;;;;;;;;5029317;28;20075;-72
2024/01/25 09:54:21;;;;;;;6.20;1.77;;;;;;;;;;5024936;28;20489;-75
2024/01/25 09:56:52;;;;;;;6.97;1.08;;;;;;;;;;5023311;28;20038;-77
2024/01/25 09:59:18;;;;;;;7.05;1.52;;;;;;;;;;5025180;28;20059;-71
2024/01/25 10:01:46;;;;;;;14.32;1.60;;;;;;;;;;5020017;28;20636;-71
2024/01/25 10:04:19;;;;;;;6.75;1.35;;;;;;;;;;5024699;28;20076;-73
2024/01/25 10:06:44;;;;;;;5.53;1.05;;;;;;;;;;5022095;28;20437;-73
2024/01/25 10:09:14;;;;;;;5.70;1.30;;;;;;;;;;5024399;28;20029;-73
2024/01/25 10:11:39;;;;;;;6.45;1.30;;;;;;;;;;5025986;28;20140;-76
2024/01/25 10:14:06;;;;;;;5.35;1.50;;;;;;;;;;5029169;28;20523;-73
2024/01/25 10:16:32;;;;;;;12.98;1.65;;;;;;;;;;5028892;28;20677;-72
2024/01/25 10:18:58;;;;;;;9.85;1.80;;;;;;;;;;5030109;28;20268;-74
2024/01/25 10:21:24;;;;;;;8.52;1.73;;;;;;;;;;5023144;28;20553;-75
2024/01/25 10:23:51;;;;;;;9.80;1.60;;;;;;;;;;5027346;28;20025;-73
2024/01/25 10:26:17;;;;;;;8.88;2.47;;;;;;;;;;5025668;28;20057;-76
2024/01/25 10:28:43;;;;;;;5.72;1.25;;;;;;;;;;5023911;28;20053;-70
2024/01/25 10:31:10;;;;;;;8.13;2.10;;;;;;;;;;5026886;28;20556;-73
2024/01/25 10:33:39;;;;;;;7.82;0.95;;;;;;;;;;5018274;28;20489;-76
2024/01/25 10:36:08;;;;;;;5.68;1.20;;;;;;;;;;5020591;28;20386;-73
2024/01/25 10:38:35;;;;;;;10.38;1.52;;;;;;;;;;5025432;28;20445;-75
2024/01/25 10:41:03;;;;;;;4.07;1.30;;;;;;;;;;5024974;28;20041;-72
2024/01/25 10:43:32;;;;;;;10.13;1.50;;;;;;;;;;5016905;28;20334;-73
2024/01/25 10:45:59;;;;;;;5.93;1.33;;;;;;;;;;5018419;28;20032;-76
2024/01/25 10:48:26;;;;;;;5.53;1.40;;;;;;;;;;5026516;28;20037;-74
2024/01/25 10:50:54;;;;;;;7.10;1.33;;;;;;;;;;5024939;28;20045;-72
2024/01/25 10:53:23;;;;;;;6.68;1.70;;;;;;;;;;5025321;28;20482;-74
2024/01/25 10:55:49;;;;;;;6.35;1.77;;;;;;;;;;5020950;28;20040;-74
2024/01/25 10:58:35;;;;;;;9.43;1.40;;;;;;;;;;5029204;28;20470;-75
2024/01/25 11:01:03;;;;;;;6.82;1.20;;;;;;;;;;5025669;28;20041;-71
2024/01/25 11:03:32;;;;;;;6.70;1.40;;;;;;;;;;5024792;28;20054;-73
2024/01/25 11:06:20;;;;;;;7.97;2.00;;;;;;;;;;5021241;28;20025;-68
2024/01/25 11:08:46;;;;;;;6.88;1.50;;;;;;;;;;5021079;28;20108;-71
2024/01/25 11:11:13;;;;;;;9.20;1.38;;;;;;;;;;5025577;28;20132;-69
2024/01/25 11:13:43;;;;;;;5.68;1.13;;;;;;;;;;5024423;28;20504;-68
2024/01/25 11:16:20;;;;;;;5.43;1.27;;;;;;;;;;5025763;28;20029;-69
2024/01/25 11:18:51;;;;;;;5.20;1.45;;;;;;;;;;5030679;28;20116;-70
2024/01/25 11:21:39;;;;;;;6.10;1.52;;;;;;;;;;5030675;28;20029;-70
2024/01/25 11:24:05;;;;;;;4.97;1.30;;;;;;;;;;5022121;28;20038;-71
2024/01/25 11:26:38;;;;;;;8.48;1.48;;;;;;;;;;5024042;28;20140;-70
2024/01/25 11:29:04;;;;;;;7.03;1.58;;;;;;;;;;5008435;28;20060;-68
2024/01/25 11:31:30;;;;;;;5.50;1.58;;;;;;;;;;5008098;28;20057;-69
2024/01/25 11:34:01;;;;;;;3.88;1.08;;;;;;;;;;5024888;28;20025;-70
2024/01/25 11:36:28;;;;;;;5.10;1.20;;;;;;;;;;5021933;28;20045;-68
2024/01/25 11:38:53;;;;;;;5.60;1.40;;;;;;;;;;5023736;28;20508;-69
2024/01/25 11:41:20;;;;;;;3.38;1.17;;;;;;;;;;5014262;28;20029;-73
2024/01/25 11:43:49;;;;;;;11.60;2.05;;;;;;;;;;5024089;28;21155;-69
2024/01/25 11:46:15;;;;;;;7.22;1.30;;;;;;;;;;5012506;28;20044;-72
2024/01/25 11:48:41;;;;;;;2.85;0.80;;;;;;;;;;5026141;28;20071;-71
2024/01/25 11:51:09;;;;;;;8.77;1.48;;;;;;;;;;5028535;28;20057;-70
2024/01/25 11:53:35;;;;;;;5.85;1.17;;;;;;;;;;5024697;28;20045;-71
2024/01/25 11:56:02;;;;;;;3.72;0.80;;;;;;;;;;5024564;28;20056;-67
2024/01/25 11:58:29;;;;;;;5.35;1.63;;;;;;;;;;5023511;28;20032;-72
2024/01/25 12:00:59;;;;;;;6.63;1.33;;;;;;;;;;5005985;28;20030;-72
2024/01/25 12:03:25;;;;;;;8.10;2.17;;;;;;;;;;5026089;28;20029;-67
2024/01/25 12:05:52;;;;;;;6.53;1.92;;;;;;;;;;5027979;28;20039;-70
2024/01/25 12:08:17;;;;;;;4.97;0.98;;;;;;;;;;5022435;28;20084;-72
2024/01/25 12:10:43;;;;;;;6.00;1.23;;;;;;;;;;5023487;28;20049;-68
2024/01/25 12:13:09;;;;;;;5.40;1.00;;;;;;;;;;5025510;28;20037;-68
2024/01/25 12:15:35;;;;;;;8.75;1.42;;;;;;;;;;5023154;28;20065;-72
2024/01/25 12:18:05;;;;;;;6.25;0.88;;;;;;;;;;5029040;28;20104;-75
2024/01/25 12:20:31;;;;;;;8.43;1.20;;;;;;;;;;5010065;28;20385;-72
2024/01/25 12:22:58;;;;;;;5.43;1.15;;;;;;;;;;5028758;28;20041;-71
2024/01/25 12:25:24;;;;;;;3.42;1.00;;;;;;;;;;5027574;28;20022;-71
2024/01/25 12:27:50;;;;;;;4.25;1.27;;;;;;;;;;5024440;28;20133;-69
2024/01/25 12:30:16;;;;;;;7.40;1.20;;;;;;;;;;5024314;28;20033;-68
2024/01/25 12:32:41;;;;;;;6.47;1.95;;;;;;;;;;5023169;28;20037;-70
2024/01/25 12:35:10;;;;;;;4.18;0.93;;;;;;;;;;5025349;28;20039;-68
2024/01/25 12:37:36;;;;;;;4.72;1.20;;;;;;;;;;5021222;28;20045;-71
2024/01/25 12:40:03;;;;;;;6.15;0.85;;;;;;;;;;5017420;28;20029;-69
2024/01/25 12:42:29;;;;;;;6.00;0.90;;;;;;;;;;5021281;28;20025;-70
2024/01/25 12:44:54;;;;;;;4.35;1.10;;;;;;;;;;5034827;28;20505;-67
2024/01/25 12:47:21;;;;;;;7.13;1.42;;;;;;;;;;5023529;28;20021;-71
2024/01/25 12:49:57;;;;;;;5.07;1.02;;;;;;;;;;5028785;28;20025;-70
2024/01/25 12:52:23;;;;;;;4.60;1.13;;;;;;;;;;5023793;28;20048;-72
2024/01/25 12:54:49;;;;;;;5.80;1.02;;;;;;;;;;5024979;28;20465;-69
2024/01/25 12:57:16;;;;;;;6.47;1.40;;;;;;;;;;5025234;28;20109;-70
2024/01/25 12:59:42;;;;;;;6.43;1.60;;;;;;;;;;5021180;28;20470;-68
2024/01/25 13:02:08;;;;;;;6.10;0.95;;;;;;;;;;5019281;28;20068;-72
2024/01/25 13:04:37;;;;;;;5.03;1.05;;;;;;;;;;5022355;28;20445;-71
2024/01/25 13:07:04;;;;;;;3.97;1.00;;;;;;;;;;5021753;28;20132;-72
2024/01/25 13:09:37;;;;;;;6.05;1.00;;;;;;;;;;5023703;28;20489;-71
2024/01/25 13:12:02;;;;;;;2.80;1.00;;;;;;;;;;5020203;28;20734;-69
2024/01/25 13:14:28;;;;;;;6.72;1.13;;;;;;;;;;5022939;28;20033;-71
2024/01/25 13:16:54;;;;;;;8.30;1.30;;;;;;;;;;5024302;28;20029;-68
2024/01/25 13:19:20;;;;;;;3.95;1.15;;;;;;;;;;5022001;28;20033;-69
2024/01/25 13:21:47;;;;;;;4.95;1.27;;;;;;;;;;5025199;28;20041;-72
2024/01/25 13:24:12;;;;;;;4.03;1.00;;;;;;;;;;5020548;28;20025;-71
2024/01/25 13:26:38;;;;;;;6.68;1.23;;;;;;;;;;5019984;28;20078;-70
2024/01/25 13:29:04;;;;;;;4.25;0.93;;;;;;;;;;5020706;28;20392;-72
2024/01/25 13:31:29;;;;;;;7.45;1.42;;;;;;;;;;5022883;28;20025;-71
2024/01/25 13:33:55;;;;;;;9.27;1.02;;;;;;;;;;5021601;28;20026;-69
2024/01/25 13:36:20;;;;;;;4.18;0.98;;;;;;;;;;5018066;28;20096;-71
2024/01/25 13:38:46;;;;;;;3.03;0.93;;;;;;;;;;5019320;28;20096;-69
2024/01/25 13:41:13;;;;;;;6.90;1.05;;;;;;;;;;5005198;28;20032;-69
2024/01/25 13:43:40;;;;;;;9.77;1.55;;;;;;;;;;5026595;28;20079;-70
2024/01/25 13:46:06;;;;;;;8.27;1.05;;;;;;;;;;5018126;28;20025;-67
2024/01/25 13:48:32;;;;;;;7.82;1.08;;;;;;;;;;5018816;28;20102;-66
2024/01/25 13:50:57;;;;;;;4.25;1.00;;;;;;;;;;5021365;28;20037;-71
2024/01/25 13:53:24;;;;;;;3.72;0.98;;;;;;;;;;5017639;28;20140;-69
2024/01/25 13:55:51;;;;;;;2.45;0.70;;;;;;;;;;5036919;28;20017;-69
2024/01/25 13:58:17;;;;;;;4.07;1.00;;;;;;;;;;5022114;28;20045;-70
2024/01/25 14:00:44;;;;;;;3.25;0.57;;;;;;;;;;5015037;28;20367;-70
2024/01/25 14:03:11;;;;;;;3.33;0.93;;;;;;;;;;5022227;28;20489;-72
2024/01/25 14:05:37;;;;;;;5.80;1.30;;;;;;;;;;5020188;28;20028;-70
2024/01/25 14:08:03;;;;;;;5.78;1.13;;;;;;;;;;5022922;28;20030;-69
2024/01/25 14:10:29;;;;;;;9.23;0.85;;;;;;;;;;5024476;28;20118;-69
2024/01/25 14:12:55;;;;;;;6.82;1.23;;;;;;;;;;5023216;28;20430;-69
2024/01/25 14:15:21;;;;;;;6.28;1.38;;;;;;;;;;5019659;28;20067;-69
2024/01/25 14:17:47;;;;;;;3.78;0.90;;;;;;;;;;5023359;28;20721;-69
2024/01/25 14:20:16;;;;;;;3.58;0.85;;;;;;;;;;5020561;28;20021;-71
2024/01/25 14:22:44;;;;;;;8.00;1.70;;;;;;;;;;5013174;28;21158;-72
2024/01/25 14:25:09;;;;;;;4.22;1.08;;;;;;;;;;5021652;28;20580;-68
2024/01/25 14:27:35;;;;;;;5.28;1.23;;;;;;;;;;5020630;28;20156;-68
2024/01/25 14:30:03;;;;;;;12.02;3.15;;;;;;;;;;5018889;28;20390;-73
2024/01/25 14:32:29;;;;;;;5.78;0.93;;;;;;;;;;5022040;28;20107;-68
2024/01/25 14:34:55;;;;;;;3.33;1.00;;;;;;;;;;5018950;28;20052;-70